Time;durP1;ratioP1;P1;durP2;ratioP2;P2;SDS_P1;SDS_P2;PMS_P1;PMS_P2;Temp;Humidity;BMP_temperature;BMP_pressure;BME280_temperature;BME280_humidity;BME280_pressure;Samples;Min_cycle;Max_cycle;Signal;HPM_P1;HPM_P2
2022/01/19 00:01:26;;;;;;;10.60;6.10;;;2.70;99.90;;;;;;5014983;28;20212;-57
2022/01/19 00:03:51;;;;;;;9.63;6.50;;;2.70;99.90;;;;;;5014674;28;20426;-56
2022/01/19 00:06:17;;;;;;;10.90;6.97;;;2.70;99.90;;;;;;5014731;28;20211;-54
2022/01/19 00:08:43;;;;;;;11.93;7.80;;;2.70;99.90;;;;;;4997292;28;20184;-52
2022/01/19 00:11:09;;;;;;;10.80;7.43;;;2.70;99.90;;;;;;5014170;28;20208;-54
2022/01/19 00:13:34;;;;;;;9.77;6.73;;;2.60;99.90;;;;;;5014842;28;20176;-57
2022/01/19 00:16:00;;;;;;;8.70;6.00;;;2.70;99.90;;;;;;5013981;28;20180;-56
2022/01/19 00:18:26;;;;;;;9.57;5.83;;;2.60;99.90;;;;;;5014784;28;20184;-57
2022/01/19 00:20:53;;;;;;;9.10;5.60;;;2.60;99.90;;;;;;5014245;28;20660;-54
2022/01/19 00:23:19;;;;;;;9.60;6.13;;;2.60;99.90;;;;;;5014336;28;20177;-57
2022/01/19 00:25:49;;;;;;;8.03;5.20;;;2.50;99.90;;;;;;5014376;28;20180;-59
2022/01/19 00:28:15;;;;;;;8.13;5.20;;;2.60;99.90;;;;;;4996510;28;20427;-55
2022/01/19 00:30:42;;;;;;;7.60;5.63;;;2.50;99.90;;;;;;5014258;28;20210;-53
2022/01/19 00:33:08;;;;;;;8.37;5.60;;;2.60;99.90;;;;;;5014261;28;20439;-49
2022/01/19 00:35:35;;;;;;;8.93;5.40;;;2.50;99.90;;;;;;5014083;28;20207;-50
2022/01/19 00:38:01;;;;;;;9.17;5.87;;;2.60;99.90;;;;;;5014028;28;20697;-51
2022/01/19 00:40:26;;;;;;;9.10;5.63;;;2.60;99.90;;;;;;5014192;28;20517;-53
2022/01/19 00:42:52;;;;;;;10.77;6.07;;;2.60;99.90;;;;;;5013911;28;20180;-55
2022/01/19 00:45:18;;;;;;;10.73;5.80;;;2.60;99.90;;;;;;5014011;28;20180;-50
2022/01/19 00:47:44;;;;;;;8.53;5.30;;;2.60;99.90;;;;;;5014091;28;20216;-50
2022/01/19 00:50:12;;;;;;;9.40;5.63;;;2.60;99.90;;;;;;5013718;28;20550;-50
2022/01/19 00:52:38;;;;;;;11.20;6.17;;;2.50;99.90;;;;;;5014105;28;20238;-52
2022/01/19 00:55:05;;;;;;;11.17;6.13;;;2.40;99.90;;;;;;5013461;28;20172;-52
2022/01/19 00:57:31;;;;;;;9.50;5.67;;;2.40;99.90;;;;;;5012762;28;20261;-55
2022/01/19 00:59:56;;;;;;;11.00;6.23;;;2.40;99.90;;;;;;4995991;28;20255;-51
2022/01/19 01:02:22;;;;;;;7.60;5.03;;;2.30;99.90;;;;;;5013976;28;20185;-51
2022/01/19 01:04:48;;;;;;;7.63;4.20;;;2.30;99.90;;;;;;5013708;28;20236;-54
2022/01/19 01:07:13;;;;;;;7.10;4.43;;;2.20;99.90;;;;;;5013614;28;20176;-55
2022/01/19 01:09:39;;;;;;;8.87;5.20;;;2.20;99.90;;;;;;5013828;28;20206;-52
2022/01/19 01:12:31;;;;;;;8.53;4.60;;;2.20;99.90;;;;;;5012870;28;20281;-51
2022/01/19 01:20:21;;;;;;;9.17;5.47;;;2.10;99.90;;;;;;5013333;28;20466;-51
2022/01/19 01:22:47;;;;;;;10.53;5.90;;;2.10;99.90;;;;;;5012715;28;20419;-52
2022/01/19 01:25:13;;;;;;;8.50;5.53;;;2.10;99.90;;;;;;5013109;28;20723;-54
2022/01/19 01:27:39;;;;;;;8.57;5.70;;;2.10;99.90;;;;;;5013206;28;20219;-54
2022/01/19 01:30:06;;;;;;;11.23;6.27;;;2.10;99.90;;;;;;5013113;28;20188;-53
2022/01/19 01:32:32;;;;;;;8.83;6.30;;;2.10;99.90;;;;;;5013273;28;20226;-56
2022/01/19 01:34:58;;;;;;;11.10;6.40;;;2.10;99.90;;;;;;5012808;28;20955;-49
2022/01/19 01:37:23;;;;;;;11.23;7.07;;;2.10;99.90;;;;;;5013277;28;20230;-51
2022/01/19 01:39:49;;;;;;;8.20;6.30;;;2.10;99.90;;;;;;5012899;28;20184;-53
2022/01/19 01:42:17;;;;;;;8.80;6.20;;;2.00;99.90;;;;;;5013202;28;20192;-52
2022/01/19 01:44:46;;;;;;;11.73;7.10;;;2.00;99.90;;;;;;5012667;28;20180;-55
2022/01/19 01:47:14;;;;;;;12.10;7.23;;;2.00;99.90;;;;;;5013117;28;21080;-51
2022/01/19 01:54:52;;;;;;;9.53;5.93;;;2.00;99.90;;;;;;5012768;28;20493;-54
2022/01/19 01:57:18;;;;;;;9.63;6.60;;;2.00;99.90;;;;;;5012606;28;20411;-53
2022/01/19 01:59:43;;;;;;;11.73;6.77;;;1.90;99.90;;;;;;5012830;28;20423;-52
2022/01/19 02:02:09;;;;;;;9.33;6.10;;;1.90;99.90;;;;;;5012336;28;20696;-56
2022/01/19 02:04:40;;;;;;;9.97;6.33;;;2.00;99.90;;;;;;5012594;28;20177;-51
2022/01/19 02:09:54;;;;;;;10.07;6.63;;;1.90;99.90;;;;;;5012845;28;20832;-50
2022/01/19 02:23:23;;;;;;;7.67;5.13;;;1.90;99.90;;;;;;5012618;28;20418;-50
2022/01/19 02:25:55;;;;;;;7.63;5.07;;;1.90;99.90;;;;;;5011520;28;20420;-54
2022/01/19 02:31:50;;;;;;;7.93;5.13;;;1.90;99.90;;;;;;5012266;28;20470;-54
2022/01/19 02:42:55;;;;;;;6.37;4.40;;;1.70;99.90;;;;;;4951655;29;20517;-50
2022/01/19 02:50:39;;;;;;;7.13;5.07;;;1.70;99.90;;;;;;4951479;28;20460;-50
2022/01/19 02:53:05;;;;;;;5.53;4.23;;;1.60;99.90;;;;;;4951452;29;20422;-53
2022/01/19 02:55:33;;;;;;;8.63;5.50;;;1.50;99.90;;;;;;4951139;29;20179;-55
2022/01/19 02:57:58;;;;;;;8.00;5.10;;;1.40;99.90;;;;;;4950847;29;20245;-52
2022/01/19 03:08:45;;;;;;;8.23;5.90;;;1.30;99.90;;;;;;4951324;29;20417;-52
2022/01/19 03:11:13;;;;;;;9.57;6.67;;;1.30;99.90;;;;;;4951266;28;21013;-49
2022/01/19 03:13:38;;;;;;;8.93;5.83;;;1.30;99.90;;;;;;4950859;29;20419;-52
2022/01/19 03:16:04;;;;;;;8.27;5.67;;;1.30;99.90;;;;;;4950661;29;20422;-55
2022/01/19 03:18:30;;;;;;;8.07;6.07;;;1.30;99.90;;;;;;4984255;28;20276;-56
2022/01/19 03:20:56;;;;;;;8.93;6.20;;;1.30;99.90;;;;;;5014940;28;20203;-56
2022/01/19 03:23:21;;;;;;;13.03;7.20;;;1.40;99.90;;;;;;5015854;28;20176;-51
2022/01/19 03:25:48;;;;;;;8.83;6.10;;;1.40;99.90;;;;;;5015274;28;20176;-50
2022/01/19 03:28:14;;;;;;;9.57;5.60;;;1.30;99.90;;;;;;5015647;28;20181;-52
2022/01/19 03:30:41;;;;;;;9.87;6.90;;;1.40;99.90;;;;;;5015355;28;20451;-52
2022/01/19 03:33:06;;;;;;;8.97;6.03;;;1.40;99.90;;;;;;5015697;28;20836;-50
2022/01/19 03:35:32;;;;;;;8.07;5.93;;;1.40;99.90;;;;;;5014551;28;20415;-55
2022/01/19 03:37:58;;;;;;;11.67;6.53;;;1.40;99.90;;;;;;5014792;28;20180;-54
2022/01/19 03:40:23;;;;;;;11.30;6.40;;;1.40;99.90;;;;;;5015454;28;20665;-56
2022/01/19 03:42:50;;;;;;;8.90;6.13;;;1.40;99.90;;;;;;5015182;28;20181;-54
2022/01/19 03:45:16;;;;;;;11.90;6.50;;;1.40;99.90;;;;;;5015176;28;20191;-53
2022/01/19 03:47:46;;;;;;;9.87;6.10;;;1.40;99.90;;;;;;5015099;28;20923;-49
2022/01/19 03:50:12;;;;;;;9.50;6.00;;;1.40;99.90;;;;;;5015189;28;20581;-53
2022/01/19 03:52:37;;;;;;;8.17;5.60;;;1.40;99.90;;;;;;5015193;28;20411;-50
2022/01/19 03:55:05;;;;;;;7.87;4.97;;;1.40;99.90;;;;;;5014983;28;20184;-56
2022/01/19 03:57:31;;;;;;;7.13;4.90;;;1.40;99.90;;;;;;5014952;28;20671;-54
2022/01/19 03:59:56;;;;;;;7.87;5.57;;;1.30;99.90;;;;;;5014609;28;20416;-51
2022/01/19 04:02:22;;;;;;;7.77;4.67;;;1.30;99.90;;;;;;4997461;28;20660;-56
2022/01/19 04:07:16;;;;;;;8.37;4.67;;;1.30;99.90;;;;;;5015040;28;20262;-55
2022/01/19 04:09:44;;;;;;;6.33;4.67;;;1.30;99.90;;;;;;5014640;28;20443;-53
2022/01/19 04:12:14;;;;;;;7.63;4.80;;;1.20;99.90;;;;;;5014859;28;20209;-58
2022/01/19 04:14:40;;;;;;;6.83;4.77;;;1.20;99.90;;;;;;5014278;28;20503;-49
2022/01/19 04:17:11;;;;;;;7.83;4.23;;;1.20;99.90;;;;;;5014914;28;20973;-55
2022/01/19 04:22:07;;;;;;;6.97;4.37;;;1.20;99.90;;;;;;5014427;28;20480;-53
2022/01/19 04:24:34;;;;;;;6.63;4.70;;;1.20;99.90;;;;;;5014417;28;20831;-54
2022/01/19 04:29:51;;;;;;;7.10;4.57;;;1.20;99.90;;;;;;5014831;28;20442;-55
2022/01/19 04:32:21;;;;;;;6.07;4.13;;;1.20;99.90;;;;;;4996674;28;20958;-58
2022/01/19 04:34:49;;;;;;;5.87;4.03;;;1.20;99.90;;;;;;5014271;28;20423;-49
2022/01/19 05:04:08;;;;;;;5.17;3.93;;;1.00;99.90;;;;;;4992070;28;20471;-55
2022/01/19 05:06:38;;;;;;;7.97;4.17;;;1.00;99.90;;;;;;5012494;28;20901;-55
2022/01/19 05:09:09;;;;;;;4.77;3.73;;;1.00;99.90;;;;;;5014081;28;20420;-52
2022/01/19 05:14:19;;;;;;;5.53;3.63;;;1.00;99.90;;;;;;5013871;28;20458;-58
2022/01/19 05:16:45;;;;;;;5.17;3.83;;;1.00;99.90;;;;;;4995919;28;20447;-51
2022/01/19 05:19:10;;;;;;;5.83;3.73;;;1.00;99.90;;;;;;5013512;28;20263;-53
2022/01/19 05:21:36;;;;;;;3.97;3.60;;;1.00;99.90;;;;;;4995705;28;20199;-54
2022/01/19 05:24:04;;;;;;;5.37;4.00;;;0.90;99.90;;;;;;5013355;28;20207;-55
2022/01/19 05:26:31;;;;;;;4.03;3.47;;;0.90;99.90;;;;;;5011674;28;20175;-56
2022/01/19 05:28:58;;;;;;;7.47;4.13;;;0.90;99.90;;;;;;5013068;28;20415;-55
2022/01/19 05:31:24;;;;;;;7.03;3.80;;;0.90;99.90;;;;;;5011581;28;20817;-58
2022/01/19 05:33:49;;;;;;;4.57;3.33;;;0.90;99.90;;;;;;5012663;28;20427;-56
2022/01/19 05:36:15;;;;;;;4.20;3.40;;;0.90;99.90;;;;;;5013199;28;20426;-58
2022/01/19 05:38:40;;;;;;;5.53;4.03;;;0.90;99.90;;;;;;5013046;28;20200;-56
2022/01/19 05:41:06;;;;;;;6.40;3.70;;;0.80;99.90;;;;;;5013532;28;20227;-53
2022/01/19 05:43:31;;;;;;;6.27;4.03;;;0.90;99.90;;;;;;5012121;28;20172;-56
2022/01/19 05:45:57;;;;;;;6.07;3.83;;;0.80;99.90;;;;;;5012885;28;20189;-56
2022/01/19 05:48:24;;;;;;;4.77;4.00;;;0.80;99.90;;;;;;5012756;28;20549;-55
2022/01/19 05:50:50;;;;;;;5.30;4.13;;;0.80;99.90;;;;;;5013396;28;20214;-52
2022/01/19 05:53:16;;;;;;;5.50;4.23;;;0.80;99.90;;;;;;5012960;28;20415;-52
2022/01/19 05:55:42;;;;;;;6.83;4.07;;;0.80;99.90;;;;;;5012373;28;20255;-55
2022/01/19 05:58:08;;;;;;;5.33;3.67;;;0.80;99.90;;;;;;5012889;28;20407;-53
2022/01/19 06:00:33;;;;;;;5.17;3.47;;;0.80;99.90;;;;;;5011750;28;20431;-55
2022/01/19 06:02:59;;;;;;;3.87;3.20;;;0.70;99.90;;;;;;4995160;28;20192;-55
2022/01/19 06:05:25;;;;;;;4.40;3.60;;;0.70;99.90;;;;;;5012136;28;20207;-54
2022/01/19 06:07:59;;;;;;;6.63;3.67;;;0.70;99.90;;;;;;5012825;28;20179;-54
2022/01/19 06:10:43;;;;;;;6.00;3.67;;;0.70;99.90;;;;;;5012344;28;20282;-58
2022/01/19 06:13:14;;;;;;;4.33;3.50;;;0.60;99.90;;;;;;5012581;28;20439;-54
2022/01/19 06:15:40;;;;;;;3.67;3.00;;;0.60;99.90;;;;;;5012275;28;20404;-55
2022/01/19 06:18:06;;;;;;;4.60;3.70;;;0.70;99.90;;;;;;5011882;28;20400;-57
2022/01/19 06:20:31;;;;;;;5.40;3.70;;;0.70;99.90;;;;;;5011590;28;20192;-51
2022/01/19 06:22:57;;;;;;;4.80;3.50;;;0.70;99.90;;;;;;5011209;28;20272;-55
2022/01/19 06:25:22;;;;;;;4.27;3.53;;;0.70;99.90;;;;;;5012074;28;20227;-56
2022/01/19 06:27:48;;;;;;;5.23;3.63;;;0.70;99.90;;;;;;5010945;28;20195;-55
2022/01/19 06:30:14;;;;;;;6.70;4.13;;;0.70;99.90;;;;;;5011887;28;20227;-56
2022/01/19 06:32:40;;;;;;;6.17;4.17;;;0.70;99.90;;;;;;5012095;28;20168;-55
2022/01/19 06:35:07;;;;;;;5.50;4.00;;;0.70;99.90;;;;;;5011968;28;20181;-53
2022/01/19 06:37:33;;;;;;;4.20;3.30;;;0.60;99.90;;;;;;5012475;28;20452;-56
2022/01/19 06:39:58;;;;;;;4.93;3.60;;;0.30;99.90;;;;;;5011987;28;20865;-55
2022/01/19 06:42:24;;;;;;;4.40;3.67;;;0.20;99.90;;;;;;5012018;28;20581;-55
2022/01/19 06:44:50;;;;;;;4.33;3.30;;;0.00;99.90;;;;;;5011660;28;20219;-55
2022/01/19 06:47:15;;;;;;;4.60;3.57;;;0.00;99.90;;;;;;4994654;28;20184;-57
2022/01/19 06:49:41;;;;;;;7.47;3.83;;;0.10;99.90;;;;;;5011796;28;20181;-55
2022/01/19 06:52:06;;;;;;;5.97;4.23;;;0.10;99.90;;;;;;5011950;28;20207;-53
2022/01/19 06:54:32;;;;;;;6.50;4.30;;;0.20;99.90;;;;;;5010759;28;20661;-58
2022/01/19 06:56:57;;;;;;;5.43;3.70;;;0.30;99.90;;;;;;5012510;28;20616;-49
2022/01/19 06:59:23;;;;;;;6.80;4.50;;;0.30;99.90;;;;;;5012011;28;20183;-51
2022/01/19 07:01:48;;;;;;;6.20;4.50;;;0.30;99.90;;;;;;5011623;28;20242;-53
2022/01/19 07:04:16;;;;;;;5.77;3.90;;;0.30;99.90;;;;;;5011722;28;20234;-52
2022/01/19 07:06:42;;;;;;;7.17;3.97;;;0.30;99.90;;;;;;5010984;28;20700;-52
2022/01/19 07:09:08;;;;;;;5.63;4.03;;;0.30;99.90;;;;;;5011896;28;20473;-55
2022/01/19 07:11:36;;;;;;;5.80;4.10;;;0.30;99.90;;;;;;5011575;28;20490;-53
2022/01/19 07:14:03;;;;;;;7.20;4.57;;;0.40;99.90;;;;;;5011630;28;20423;-51
2022/01/19 07:16:28;;;;;;;5.77;4.10;;;0.50;99.90;;;;;;5011606;28;20411;-50
2022/01/19 07:18:54;;;;;;;6.20;4.50;;;0.50;99.90;;;;;;5011770;28;20928;-51
2022/01/19 07:21:19;;;;;;;6.03;4.33;;;0.60;99.90;;;;;;5007216;28;20263;-55
2022/01/19 07:23:45;;;;;;;7.70;4.70;;;0.60;99.90;;;;;;5002651;28;20200;-54
2022/01/19 07:26:10;;;;;;;5.20;4.00;;;0.70;99.90;;;;;;4991848;28;20181;-51
2022/01/19 07:28:36;;;;;;;6.17;4.03;;;0.70;99.90;;;;;;5006574;28;20251;-54
2022/01/19 07:31:02;;;;;;;6.53;4.70;;;0.70;99.90;;;;;;5003294;28;20231;-53
2022/01/19 07:33:27;;;;;;;5.53;4.33;;;0.80;99.90;;;;;;5008591;28;20196;-51
2022/01/19 07:35:53;;;;;;;7.13;5.07;;;0.90;99.90;;;;;;5000788;28;20646;-51
2022/01/19 07:38:19;;;;;;;5.80;4.33;;;0.90;99.90;;;;;;4991750;28;20697;-52
2022/01/19 07:40:45;;;;;;;6.03;4.20;;;1.00;99.90;;;;;;5005750;28;20674;-53
2022/01/19 07:43:10;;;;;;;4.90;3.90;;;1.00;99.90;;;;;;4993995;28;20620;-56
2022/01/19 07:45:36;;;;;;;4.93;4.00;;;1.00;99.90;;;;;;4999322;28;20181;-57
2022/01/19 07:48:01;;;;;;;5.77;3.80;;;1.20;99.90;;;;;;4999054;28;20180;-56
2022/01/19 07:50:27;;;;;;;5.00;3.57;;;1.90;99.90;;;;;;5001919;28;20216;-56
2022/01/19 07:52:53;;;;;;;3.77;3.13;;;3.20;99.90;;;;;;4992297;28;20188;-56
2022/01/19 07:55:19;;;;;;;4.10;2.67;;;5.00;99.90;;;;;;4991087;28;20260;-57
2022/01/19 07:57:50;;;;;;;3.77;2.73;;;6.90;99.90;;;;;;4991608;28;20201;-58
2022/01/19 08:00:17;;;;;;;2.67;2.47;;;8.70;99.90;;;;;;4991573;28;20507;-57
2022/01/19 08:02:44;;;;;;;3.50;2.70;;;10.40;99.90;;;;;;4991882;28;20724;-58
2022/01/19 08:05:10;;;;;;;3.57;2.70;;;12.30;98.10;;;;;;4992068;28;20220;-59
2022/01/19 08:07:35;;;;;;;3.27;2.87;;;14.10;95.20;;;;;;4995354;28;20179;-58
2022/01/19 08:10:06;;;;;;;2.40;2.20;;;15.80;92.50;;;;;;4978161;28;20200;-59
2022/01/19 08:12:32;;;;;;;4.17;2.70;;;17.60;89.80;;;;;;4977887;28;20209;-58
2022/01/19 08:14:58;;;;;;;3.57;2.97;;;19.10;83.20;;;;;;4994979;28;20209;-57
2022/01/19 08:17:26;;;;;;;4.73;2.90;;;20.60;77.40;;;;;;4995044;28;20651;-52
2022/01/19 08:19:52;;;;;;;3.60;3.03;;;21.90;72.10;;;;;;4995052;28;20204;-53
2022/01/19 08:22:18;;;;;;;3.25;2.70;;;23.10;67.10;;;;;;4994919;28;20292;-60
2022/01/19 08:24:43;;;;;;;2.70;2.45;;;24.10;62.90;;;;;;4994786;28;20312;-58
2022/01/19 08:27:09;;;;;;;3.20;2.38;;;25.00;59.20;;;;;;4995131;28;20181;-58
2022/01/19 08:29:35;;;;;;;1.98;1.85;;;25.90;56.10;;;;;;4994931;28;20177;-58
2022/01/19 08:32:00;;;;;;;2.60;2.40;;;26.60;53.60;;;;;;4994859;28;20577;-58
2022/01/19 08:34:26;;;;;;;2.08;1.90;;;27.30;51.10;;;;;;4994584;28;20177;-59
2022/01/19 08:36:51;;;;;;;2.10;2.00;;;27.80;48.80;;;;;;4994883;28;20777;-58
2022/01/19 08:39:18;;;;;;;2.45;2.10;;;28.30;47.30;;;;;;4994613;28;20231;-54
2022/01/19 08:41:43;;;;;;;2.28;2.08;;;28.80;45.90;;;;;;4994606;28;20240;-54
2022/01/19 08:44:09;;;;;;;2.20;2.00;;;29.20;44.80;;;;;;4994272;28;20174;-56
2022/01/19 08:46:37;;;;;;;2.30;2.10;;;29.70;43.30;;;;;;4994567;28;20177;-56
2022/01/19 08:49:03;;;;;;;2.40;2.20;;;30.30;42.50;;;;;;4994521;28;20174;-60
2022/01/19 08:51:28;;;;;;;2.40;2.20;;;30.90;40.60;;;;;;4994477;28;20205;-57
2022/01/19 08:53:54;;;;;;;2.85;2.33;;;31.20;39.20;;;;;;4994333;28;20256;-56
2022/01/19 08:56:19;;;;;;;2.58;2.38;;;31.50;38.50;;;;;;4994448;28;20177;-59
2022/01/19 08:58:45;;;;;;;2.00;1.88;;;31.90;37.70;;;;;;4994388;28;20231;-55
2022/01/19 09:01:10;;;;;;;2.60;2.33;;;32.10;37.10;;;;;;4994027;28;20583;-53
2022/01/19 09:03:36;;;;;;;2.10;1.90;;;32.40;36.30;;;;;;4994469;28;20185;-58
2022/01/19 09:06:02;;;;;;;2.33;2.13;;;32.50;35.10;;;;;;4993823;28;20173;-58
2022/01/19 09:08:30;;;;;;;2.67;2.10;;;32.70;34.90;;;;;;4994172;28;20275;-60
2022/01/19 09:10:58;;;;;;;2.25;2.05;;;33.10;35.10;;;;;;4993875;28;20375;-60
2022/01/19 09:13:24;;;;;;;2.15;1.95;;;33.60;34.20;;;;;;4993731;28;20169;-59
2022/01/19 09:15:50;;;;;;;2.40;2.15;;;34.00;33.10;;;;;;4993701;28;20181;-59
2022/01/19 09:18:15;;;;;;;1.95;1.75;;;34.40;32.50;;;;;;4993253;28;20200;-59
2022/01/19 09:20:41;;;;;;;2.28;2.08;;;34.80;32.40;;;;;;4993776;28;20209;-61
2022/01/19 09:23:07;;;;;;;2.30;2.10;;;35.20;30.90;;;;;;4994024;28;20174;-61
2022/01/19 09:25:32;;;;;;;2.35;2.17;;;35.40;30.80;;;;;;4993971;28;20188;-59
2022/01/19 09:27:58;;;;;;;2.35;2.17;;;35.40;30.60;;;;;;4993809;28;20524;-61
2022/01/19 09:30:25;;;;;;;2.80;2.53;;;35.50;30.00;;;;;;4993864;28;20180;-61
2022/01/19 09:33:05;;;;;;;3.08;2.78;;;35.60;29.70;;;;;;4993788;28;20176;-59
2022/01/19 09:35:40;;;;;;;3.20;2.90;;;35.70;29.60;;;;;;4993494;28;20169;-59
2022/01/19 09:38:05;;;;;;;4.72;3.45;;;35.90;29.20;;;;;;4993557;28;20200;-58
2022/01/19 09:40:31;;;;;;;3.63;3.33;;;35.90;29.20;;;;;;4993653;28;20639;-59
2022/01/19 09:42:57;;;;;;;3.80;3.40;;;36.00;28.70;;;;;;4993630;28;20175;-59
2022/01/19 09:45:22;;;;;;;3.65;3.35;;;36.20;28.80;;;;;;4993315;28;20232;-58
2022/01/19 09:47:48;;;;;;;3.83;3.50;;;36.40;28.30;;;;;;4993389;28;20307;-61
2022/01/19 09:50:13;;;;;;;3.72;3.42;;;36.50;28.30;;;;;;4993404;28;20173;-61
2022/01/19 09:52:39;;;;;;;3.65;3.35;;;36.80;28.20;;;;;;4993587;28;20568;-61
2022/01/19 09:55:06;;;;;;;4.05;3.40;;;36.90;28.20;;;;;;4992973;28;20191;-61
2022/01/19 09:57:33;;;;;;;4.32;3.50;;;37.50;28.20;;;;;;4993482;28;20582;-62
2022/01/19 09:59:58;;;;;;;3.47;3.17;;;37.90;27.40;;;;;;4993255;28;20303;-59
2022/01/19 10:02:24;;;;;;;3.72;2.90;;;37.90;26.70;;;;;;4993070;28;20303;-61
2022/01/19 10:04:50;;;;;;;3.75;3.35;;;37.70;26.90;;;;;;4992873;28;20176;-60
2022/01/19 10:07:21;;;;;;;4.05;2.63;;;37.30;26.30;;;;;;4993309;28;20304;-57
2022/01/19 10:09:50;;;;;;;2.50;2.30;;;36.90;27.00;;;;;;4975539;28;20180;-61
2022/01/19 10:18:18;;;;;;;3.40;2.72;;;38.30;26.60;;;;;;4993419;28;20215;-59
2022/01/19 10:20:47;;;;;;;2.90;2.60;;;38.60;25.70;;;;;;4992791;28;20204;-61
2022/01/19 10:23:36;;;;;;;3.00;2.78;;;38.70;25.10;;;;;;4993003;28;20228;-59
2022/01/19 10:26:06;;;;;;;3.33;2.42;;;38.00;25.20;;;;;;4992509;28;20164;-59
2022/01/19 10:28:58;;;;;;;3.42;2.92;;;36.70;25.50;;;;;;4992770;28;20176;-58
2022/01/19 10:31:23;;;;;;;3.65;2.95;;;35.90;26.30;;;;;;4992491;28;20256;-59
2022/01/19 10:34:16;;;;;;;4.47;2.70;;;35.70;25.90;;;;;;4992771;28;20908;-56
2022/01/19 10:36:46;;;;;;;2.80;2.60;;;35.30;26.70;;;;;;4992573;28;20200;-58
2022/01/19 10:39:12;;;;;;;3.83;2.75;;;35.50;27.00;;;;;;4992938;28;20263;-59
2022/01/19 10:41:55;;;;;;;4.03;2.97;;;36.10;26.20;;;;;;4992277;28;20215;-59
2022/01/19 10:44:40;;;;;;;3.03;2.63;;;36.40;25.70;;;;;;4992282;28;20179;-58
2022/01/19 10:47:07;;;;;;;2.90;2.60;;;36.50;26.10;;;;;;4992566;28;20222;-59
2022/01/19 10:49:54;;;;;;;3.13;2.60;;;37.10;26.10;;;;;;4992594;28;20181;-60
2022/01/19 10:52:31;;;;;;;3.05;2.67;;;37.40;26.00;;;;;;4992217;28;20200;-61
2022/01/19 10:54:58;;;;;;;3.65;2.47;;;38.00;25.80;;;;;;4992326;28;20206;-62
2022/01/19 10:57:26;;;;;;;3.10;2.63;;;38.60;25.80;;;;;;4992434;28;20181;-57
2022/01/19 10:59:53;;;;;;;3.10;2.80;;;39.10;24.80;;;;;;4992444;28;20176;-61
2022/01/19 11:02:19;;;;;;;2.72;2.47;;;39.10;25.00;;;;;;4993458;28;20216;-60
2022/01/19 11:04:45;;;;;;;3.50;2.65;;;39.20;24.50;;;;;;4991985;28;20534;-59
2022/01/19 11:07:22;;;;;;;3.88;2.92;;;39.00;24.90;;;;;;4992381;28;20172;-59
2022/01/19 11:10:00;;;;;;;3.40;2.90;;;38.70;25.10;;;;;;4992270;28;20173;-59
2022/01/19 11:12:29;;;;;;;3.60;2.83;;;38.40;24.50;;;;;;4992315;28;20676;-59
2022/01/19 11:14:55;;;;;;;3.40;2.80;;;38.30;25.20;;;;;;4991201;28;20200;-59
2022/01/19 11:17:21;;;;;;;2.97;2.65;;;38.60;25.00;;;;;;4990760;28;20543;-60
2022/01/19 11:19:46;;;;;;;4.90;3.35;;;38.80;24.40;;;;;;4990844;28;20169;-60
2022/01/19 11:22:42;;;;;;;4.43;3.05;;;38.40;24.30;;;;;;4992226;28;20223;-59
2022/01/19 11:25:23;;;;;;;4.32;3.35;;;38.00;25.00;;;;;;4991822;28;20177;-60
2022/01/19 11:27:49;;;;;;;3.50;3.20;;;38.20;24.90;;;;;;4992123;28;20577;-60
2022/01/19 11:30:15;;;;;;;3.58;3.17;;;38.50;24.70;;;;;;4991893;28;20173;-59
2022/01/19 11:32:42;;;;;;;4.00;3.22;;;37.50;24.20;;;;;;4991622;28;20223;-59
2022/01/19 11:35:08;;;;;;;3.30;3.00;;;36.80;24.90;;;;;;5005315;28;20187;-59
2022/01/19 11:37:43;;;;;;;4.32;3.45;;;36.60;25.10;;;;;;5011508;28;20165;-60
2022/01/19 11:40:14;;;;;;;5.45;3.83;;;36.40;24.80;;;;;;5004461;28;20673;-55
2022/01/19 11:42:41;;;;;;;4.95;3.65;;;36.20;24.70;;;;;;5008287;28;20176;-58
2022/01/19 11:45:37;;;;;;;4.00;3.55;;;34.70;26.30;;;;;;5006032;28;20173;-58
2022/01/19 11:48:17;;;;;;;4.28;3.50;;;34.10;25.80;;;;;;5007655;28;20169;-58
2022/01/19 11:50:45;;;;;;;5.03;3.83;;;33.70;26.40;;;;;;5032506;28;20573;-53
2022/01/19 11:53:12;;;;;;;4.90;4.00;;;33.40;26.70;;;;;;5017977;28;20653;-58
2022/01/19 11:55:40;;;;;;;4.80;3.55;;;33.20;26.50;;;;;;5015126;28;20173;-58
2022/01/19 11:58:15;;;;;;;5.32;3.85;;;33.40;27.00;;;;;;5014926;28;20164;-56
2022/01/19 12:00:44;;;;;;;4.75;3.70;;;33.60;26.20;;;;;;4996904;28;20214;-57
2022/01/19 12:03:17;;;;;;;4.03;3.45;;;33.80;26.40;;;;;;5012504;28;20169;-58
2022/01/19 12:05:44;;;;;;;4.38;3.40;;;33.80;26.80;;;;;;5013640;28;20180;-58
2022/01/19 12:08:32;;;;;;;4.97;3.90;;;34.20;26.80;;;;;;5014004;28;20172;-58
2022/01/19 12:11:17;;;;;;;5.20;4.20;;;34.40;26.50;;;;;;5015133;28;20283;-56
2022/01/19 12:16:21;;;;;;;4.22;3.38;;;34.50;26.90;;;;;;5014883;28;20177;-56
2022/01/19 12:18:49;;;;;;;6.55;3.95;;;34.20;26.50;;;;;;5014885;28;20255;-54
2022/01/19 12:21:37;;;;;;;6.20;3.83;;;34.50;26.50;;;;;;5014525;28;20240;-55
2022/01/19 12:24:16;;;;;;;4.55;3.65;;;34.30;26.00;;;;;;5001911;28;20185;-58
2022/01/19 12:27:22;;;;;;;7.40;5.78;;;34.00;26.10;;;;;;5014336;28;20176;-58
2022/01/19 12:30:13;;;;;;;7.13;4.57;;;33.20;26.50;;;;;;5013691;28;20180;-58
2022/01/19 12:32:41;;;;;;;5.07;3.90;;;31.50;27.40;;;;;;5004518;28;20181;-57
2022/01/19 12:35:10;;;;;;;4.97;3.78;;;31.00;27.90;;;;;;5014323;28;20660;-54
2022/01/19 12:37:45;;;;;;;4.57;3.25;;;30.20;28.50;;;;;;5013651;28;20169;-57
2022/01/19 12:40:21;;;;;;;7.28;3.80;;;30.00;29.30;;;;;;5014364;28;20169;-57
2022/01/19 12:42:54;;;;;;;5.57;4.53;;;29.50;29.00;;;;;;5014214;28;20650;-55
2022/01/19 12:45:28;;;;;;;6.32;4.45;;;28.30;29.90;;;;;;5014138;28;20168;-57
2022/01/19 12:47:56;;;;;;;5.28;3.80;;;26.80;30.70;;;;;;5014031;28;20163;-57
2022/01/19 12:50:34;;;;;;;5.57;3.65;;;26.50;31.50;;;;;;5014271;28;20165;-55
2022/01/19 12:53:20;;;;;;;5.38;3.47;;;26.70;31.10;;;;;;5012744;28;20172;-57
2022/01/19 12:55:49;;;;;;;6.32;3.90;;;27.20;31.10;;;;;;5014015;28;20534;-54
2022/01/19 12:58:25;;;;;;;7.88;4.80;;;27.40;30.40;;;;;;5009134;28;20216;-53
2022/01/19 13:00:54;;;;;;;4.72;3.50;;;26.80;31.00;;;;;;5013383;28;20294;-54
2022/01/19 13:03:24;;;;;;;7.03;4.40;;;26.50;31.80;;;;;;5013502;28;20581;-58
2022/01/19 13:05:58;;;;;;;6.85;4.30;;;26.50;31.50;;;;;;5013100;28;20165;-54
2022/01/19 13:08:36;;;;;;;5.70;4.07;;;25.60;33.30;;;;;;5013532;28;20192;-56
2022/01/19 13:11:10;;;;;;;5.53;3.88;;;24.80;34.10;;;;;;5013194;28;20192;-55
2022/01/19 13:13:56;;;;;;;7.32;4.68;;;24.20;35.20;;;;;;5013406;28;20184;-55
2022/01/19 13:16:31;;;;;;;7.28;4.55;;;22.30;36.10;;;;;;5011263;28;20181;-56
2022/01/19 13:19:02;;;;;;;7.32;4.53;;;21.80;58.10;;;;;;5012988;28;20716;-54
2022/01/19 13:21:28;;;;;;;7.20;4.75;;;;;;;;;;5012911;28;20254;-51
2022/01/19 13:24:04;;;;;;;7.28;4.43;;;20.80;58.80;;;;;;5013450;28;20171;-50
2022/01/19 13:26:42;;;;;;;5.78;4.38;;;20.30;38.70;;;;;;5012959;28;20177;-56
2022/01/19 13:29:19;;;;;;;5.15;4.03;;;18.90;72.40;;;;;;5013167;28;20508;-53
2022/01/19 13:32:10;;;;;;;6.28;4.30;;;18.20;57.80;;;;;;5013129;28;20211;-54
2022/01/19 13:34:54;;;;;;;5.85;4.20;;;;;;;;;;5013218;28;20230;-51
2022/01/19 13:37:23;;;;;;;5.22;4.18;;;17.70;58.90;;;;;;5013288;28;20631;-54
2022/01/19 13:40:07;;;;;;;6.22;4.43;;;16.70;58.20;;;;;;5013192;28;20200;-55
2022/01/19 13:42:44;;;;;;;4.80;4.03;;;16.10;45.60;;;;;;5012873;28;20220;-52
2022/01/19 13:45:36;;;;;;;6.23;4.40;;;15.80;55.10;;;;;;5012915;28;20219;-51
2022/01/19 13:50:51;;;;;;;6.47;4.47;;;14.70;47.70;;;;;;5013003;28;20266;-52
2022/01/19 13:53:33;;;;;;;7.37;4.50;;;13.80;68.30;;;;;;5013044;28;20606;-49
2022/01/19 13:56:03;;;;;;;6.93;4.90;;;13.90;49.20;;;;;;5012385;28;20200;-48
2022/01/19 13:58:43;;;;;;;6.33;4.77;;;13.80;50.50;;;;;;5012760;28;20187;-56
2022/01/19 14:01:17;;;;;;;8.63;5.10;;;13.40;69.00;;;;;;5012211;28;20227;-52
2022/01/19 14:03:48;;;;;;;8.30;5.00;;;13.80;75.50;;;;;;5012479;28;20560;-53
2022/01/19 14:06:37;;;;;;;7.40;5.10;;;12.70;76.10;;;;;;5012089;28;20176;-57
2022/01/19 14:09:27;;;;;;;9.63;5.07;;;12.10;55.30;;;;;;5012932;28;20649;-55
2022/01/19 14:12:00;;;;;;;6.70;5.10;;;12.20;83.20;;;;;;5012552;28;20591;-52
2022/01/19 14:14:34;;;;;;;7.43;5.20;;;12.30;55.60;;;;;;5012308;28;20175;-54
2022/01/19 14:17:01;;;;;;;8.67;5.43;;;12.80;82.20;;;;;;5012493;28;20206;-53
2022/01/19 14:19:31;;;;;;;7.33;5.60;;;12.40;55.70;;;;;;5012615;28;20173;-56
2022/01/19 14:22:03;;;;;;;6.70;5.43;;;;;;;;;;5012352;28;20208;-56
2022/01/19 14:24:42;;;;;;;8.53;5.47;;;12.80;71.70;;;;;;5012214;28;20169;-54
2022/01/19 14:27:12;;;;;;;8.33;5.50;;;12.80;79.10;;;;;;5012007;28;20876;-54
2022/01/19 14:30:09;;;;;;;8.90;5.83;;;12.10;80.90;;;;;;5011533;28;20169;-52
2022/01/19 14:32:50;;;;;;;8.33;5.93;;;10.90;78.00;;;;;;5012034;28;20249;-55
2022/01/19 14:35:45;;;;;;;9.27;6.13;;;11.60;78.50;;;;;;5011975;28;20171;-53
2022/01/19 14:38:22;;;;;;;10.03;6.30;;;11.60;84.00;;;;;;5011841;28;20225;-53
2022/01/19 14:41:08;;;;;;;9.27;5.70;;;11.30;64.20;;;;;;5012183;28;20758;-56
2022/01/19 14:43:47;;;;;;;10.33;6.13;;;11.40;61.90;;;;;;5010263;28;20203;-53